Terminal Aerodrome Forecast
Issued by NWS

Home | Current Version | Previous Version | Text Only | Print | Product List | Glossary On
Versions: 1 2 3 4 5 6 7 8 9 10 11 12 13 14 15 16 17 18 19
000
FTUS43 KGRB 231720
TAFMTW
TAF
KMTW 231720Z 2318/2418 16011G19KT P6SM SCT250
     FM240100 17006KT P6SM SCT120 BKN200
     FM241100 20007KT P6SM VCSH SCT045 BKN080
      TEMPO 2413/2417 3SM -SHRA BKN045=

USA.gov is the U.S. government's official web portal to all federal, state and local government web resources and services.